sensor_id;sensor_type;location;lat;lon;timestamp;temperature;humidity
38325;DHT22;24126;52.672;13.622;2024-02-23T00:00:30;14.20;88.80
38325;DHT22;24126;52.672;13.622;2024-02-23T00:02:57;14.30;88.70
38325;DHT22;24126;52.672;13.622;2024-02-23T00:05:24;14.20;88.60
38325;DHT22;24126;52.672;13.622;2024-02-23T00:07:51;14.20;88.60
38325;DHT22;24126;52.672;13.622;2024-02-23T00:10:18;14.30;88.60
38325;DHT22;24126;52.672;13.622;2024-02-23T00:12:45;14.30;88.40
38325;DHT22;24126;52.672;13.622;2024-02-23T00:15:14;14.30;88.40
38325;DHT22;24126;52.672;13.622;2024-02-23T00:17:41;14.20;88.40
38325;DHT22;24126;52.672;13.622;2024-02-23T00:20:08;14.20;88.60
38325;DHT22;24126;52.672;13.622;2024-02-23T00:22:36;14.20;88.40
38325;DHT22;24126;52.672;13.622;2024-02-23T00:25:04;14.30;88.30
38325;DHT22;24126;52.672;13.622;2024-02-23T00:27:31;14.30;88.30
38325;DHT22;24126;52.672;13.622;2024-02-23T00:29:59;14.30;88.30
38325;DHT22;24126;52.672;13.622;2024-02-23T00:32:26;14.30;88.20
38325;DHT22;24126;52.672;13.622;2024-02-23T00:34:53;14.30;88.30
38325;DHT22;24126;52.672;13.622;2024-02-23T00:37:20;14.30;88.30
38325;DHT22;24126;52.672;13.622;2024-02-23T00:39:47;14.30;88.10
38325;DHT22;24126;52.672;13.622;2024-02-23T00:42:15;14.40;88.10
38325;DHT22;24126;52.672;13.622;2024-02-23T00:44:42;14.40;88.00
38325;DHT22;24126;52.672;13.622;2024-02-23T00:47:09;14.40;87.90
38325;DHT22;24126;52.672;13.622;2024-02-23T00:49:36;14.40;87.80
38325;DHT22;24126;52.672;13.622;2024-02-23T00:52:03;14.40;87.70
38325;DHT22;24126;52.672;13.622;2024-02-23T00:54:30;14.40;87.60
38325;DHT22;24126;52.672;13.622;2024-02-23T00:56:57;14.30;87.60
38325;DHT22;24126;52.672;13.622;2024-02-23T00:59:25;14.30;87.70
38325;DHT22;24126;52.672;13.622;2024-02-23T01:01:52;14.30;87.40
38325;DHT22;24126;52.672;13.622;2024-02-23T01:04:19;14.30;87.50
38325;DHT22;24126;52.672;13.622;2024-02-23T01:06:46;14.30;87.50
38325;DHT22;24126;52.672;13.622;2024-02-23T01:09:13;14.30;87.40
38325;DHT22;24126;52.672;13.622;2024-02-23T01:11:42;14.30;87.40
38325;DHT22;24126;52.672;13.622;2024-02-23T01:14:09;14.30;87.40
38325;DHT22;24126;52.672;13.622;2024-02-23T01:16:37;14.30;87.20
38325;DHT22;24126;52.672;13.622;2024-02-23T01:19:04;14.30;87.20
38325;DHT22;24126;52.672;13.622;2024-02-23T01:21:31;14.30;87.20
38325;DHT22;24126;52.672;13.622;2024-02-23T01:23:58;14.30;87.30
38325;DHT22;24126;52.672;13.622;2024-02-23T01:26:26;14.30;87.20
38325;DHT22;24126;52.672;13.622;2024-02-23T01:28:54;14.30;87.10
38325;DHT22;24126;52.672;13.622;2024-02-23T01:31:22;14.30;87.00
38325;DHT22;24126;52.672;13.622;2024-02-23T01:33:49;14.40;86.90
38325;DHT22;24126;52.672;13.622;2024-02-23T01:36:17;14.40;86.80
38325;DHT22;24126;52.672;13.622;2024-02-23T01:38:44;14.40;86.60
38325;DHT22;24126;52.672;13.622;2024-02-23T01:41:11;14.40;86.50
38325;DHT22;24126;52.672;13.622;2024-02-23T01:43:38;14.40;86.40
38325;DHT22;24126;52.672;13.622;2024-02-23T01:46:05;14.40;86.30
38325;DHT22;24126;52.672;13.622;2024-02-23T01:48:32;14.50;86.30
38325;DHT22;24126;52.672;13.622;2024-02-23T01:51:00;14.40;86.20
38325;DHT22;24126;52.672;13.622;2024-02-23T01:53:27;14.40;86.10
38325;DHT22;24126;52.672;13.622;2024-02-23T01:55:54;14.40;86.00
38325;DHT22;24126;52.672;13.622;2024-02-23T01:58:21;14.40;85.80
38325;DHT22;24126;52.672;13.622;2024-02-23T02:00:49;14.40;85.70
38325;DHT22;24126;52.672;13.622;2024-02-23T02:03:16;14.40;85.60
38325;DHT22;24126;52.672;13.622;2024-02-23T02:05:43;14.50;85.40
38325;DHT22;24126;52.672;13.622;2024-02-23T02:08:11;14.50;85.90
38325;DHT22;24126;52.672;13.622;2024-02-23T02:10:38;14.50;85.10
38325;DHT22;24126;52.672;13.622;2024-02-23T02:13:05;14.50;84.90
38325;DHT22;24126;52.672;13.622;2024-02-23T02:15:32;14.60;84.70
38325;DHT22;24126;52.672;13.622;2024-02-23T02:17:59;14.60;84.30
38325;DHT22;24126;52.672;13.622;2024-02-23T02:20:26;14.60;83.90
38325;DHT22;24126;52.672;13.622;2024-02-23T02:22:54;14.60;83.60
38325;DHT22;24126;52.672;13.622;2024-02-23T02:25:21;14.60;83.40
38325;DHT22;24126;52.672;13.622;2024-02-23T02:27:48;14.60;83.20
38325;DHT22;24126;52.672;13.622;2024-02-23T02:30:16;14.70;82.80
38325;DHT22;24126;52.672;13.622;2024-02-23T02:32:43;14.70;82.70
38325;DHT22;24126;52.672;13.622;2024-02-23T02:35:10;14.70;82.30
38325;DHT22;24126;52.672;13.622;2024-02-23T02:37:38;14.70;81.80
38325;DHT22;24126;52.672;13.622;2024-02-23T02:40:06;14.70;81.70
38325;DHT22;24126;52.672;13.622;2024-02-23T02:42:33;14.70;81.20
38325;DHT22;24126;52.672;13.622;2024-02-23T02:45:00;14.70;80.40
38325;DHT22;24126;52.672;13.622;2024-02-23T02:47:28;14.70;80.30
38325;DHT22;24126;52.672;13.622;2024-02-23T02:49:56;14.70;79.80
38325;DHT22;24126;52.672;13.622;2024-02-23T02:52:23;14.70;79.50
38325;DHT22;24126;52.672;13.622;2024-02-23T02:54:50;14.70;78.30
38325;DHT22;24126;52.672;13.622;2024-02-23T02:57:17;14.60;77.50
38325;DHT22;24126;52.672;13.622;2024-02-23T02:59:44;14.60;77.00
38325;DHT22;24126;52.672;13.622;2024-02-23T03:02:11;14.50;76.30
38325;DHT22;24126;52.672;13.622;2024-02-23T03:04:38;14.50;76.00
38325;DHT22;24126;52.672;13.622;2024-02-23T03:07:05;14.50;75.60
38325;DHT22;24126;52.672;13.622;2024-02-23T03:09:32;14.40;75.20
38325;DHT22;24126;52.672;13.622;2024-02-23T03:11:59;14.40;74.70
38325;DHT22;24126;52.672;13.622;2024-02-23T03:14:26;14.40;74.50
38325;DHT22;24126;52.672;13.622;2024-02-23T03:16:54;14.30;73.90
38325;DHT22;24126;52.672;13.622;2024-02-23T03:19:21;14.30;73.60
38325;DHT22;24126;52.672;13.622;2024-02-23T03:21:49;14.20;73.40
38325;DHT22;24126;52.672;13.622;2024-02-23T03:24:16;14.20;73.00
38325;DHT22;24126;52.672;13.622;2024-02-23T03:26:43;14.10;72.50
38325;DHT22;24126;52.672;13.622;2024-02-23T03:29:10;14.10;72.70
38325;DHT22;24126;52.672;13.622;2024-02-23T03:31:37;14.10;72.40
38325;DHT22;24126;52.672;13.622;2024-02-23T03:34:04;14.00;72.10
38325;DHT22;24126;52.672;13.622;2024-02-23T03:36:31;14.00;72.30
38325;DHT22;24126;52.672;13.622;2024-02-23T03:38:58;14.00;72.20
38325;DHT22;24126;52.672;13.622;2024-02-23T03:41:25;14.00;72.00
38325;DHT22;24126;52.672;13.622;2024-02-23T03:43:52;14.00;72.00
38325;DHT22;24126;52.672;13.622;2024-02-23T03:46:19;14.00;71.70
38325;DHT22;24126;52.672;13.622;2024-02-23T03:48:47;13.90;71.50
38325;DHT22;24126;52.672;13.622;2024-02-23T03:51:14;13.90;71.40
38325;DHT22;24126;52.672;13.622;2024-02-23T03:53:42;13.80;71.40
38325;DHT22;24126;52.672;13.622;2024-02-23T03:56:09;13.80;70.90
38325;DHT22;24126;52.672;13.622;2024-02-23T03:58:36;13.80;71.10
38325;DHT22;24126;52.672;13.622;2024-02-23T04:01:03;13.70;70.90
38325;DHT22;24126;52.672;13.622;2024-02-23T04:03:30;13.70;70.70
38325;DHT22;24126;52.672;13.622;2024-02-23T04:05:57;13.60;70.70
38325;DHT22;24126;52.672;13.622;2024-02-23T04:08:24;13.60;70.60
38325;DHT22;24126;52.672;13.622;2024-02-23T04:10:51;13.60;70.50
38325;DHT22;24126;52.672;13.622;2024-02-23T04:13:18;13.60;70.40
38325;DHT22;24126;52.672;13.622;2024-02-23T04:15:45;13.50;70.30
38325;DHT22;24126;52.672;13.622;2024-02-23T04:18:12;13.50;69.80
38325;DHT22;24126;52.672;13.622;2024-02-23T04:20:39;13.50;69.90
38325;DHT22;24126;52.672;13.622;2024-02-23T04:23:06;13.50;69.80
38325;DHT22;24126;52.672;13.622;2024-02-23T04:25:33;13.40;69.50
38325;DHT22;24126;52.672;13.622;2024-02-23T04:28:00;13.40;69.60
38325;DHT22;24126;52.672;13.622;2024-02-23T04:30:27;13.40;69.60
38325;DHT22;24126;52.672;13.622;2024-02-23T04:32:54;13.40;69.70
38325;DHT22;24126;52.672;13.622;2024-02-23T04:35:21;13.30;69.50
38325;DHT22;24126;52.672;13.622;2024-02-23T04:37:48;13.30;69.70
38325;DHT22;24126;52.672;13.622;2024-02-23T04:40:16;13.30;69.60
38325;DHT22;24126;52.672;13.622;2024-02-23T04:42:43;13.30;69.30
38325;DHT22;24126;52.672;13.622;2024-02-23T04:45:11;13.30;69.40
38325;DHT22;24126;52.672;13.622;2024-02-23T04:47:38;13.20;69.20
38325;DHT22;24126;52.672;13.622;2024-02-23T04:50:06;13.20;69.00
38325;DHT22;24126;52.672;13.622;2024-02-23T04:52:34;13.20;69.00
38325;DHT22;24126;52.672;13.622;2024-02-23T04:55:01;13.20;69.00
38325;DHT22;24126;52.672;13.622;2024-02-23T04:57:28;13.20;68.90
38325;DHT22;24126;52.672;13.622;2024-02-23T04:59:55;13.10;68.80
38325;DHT22;24126;52.672;13.622;2024-02-23T05:02:22;13.10;68.70
38325;DHT22;24126;52.672;13.622;2024-02-23T05:04:49;13.10;68.70
38325;DHT22;24126;52.672;13.622;2024-02-23T05:07:16;13.10;68.50
38325;DHT22;24126;52.672;13.622;2024-02-23T05:09:43;13.10;67.80
38325;DHT22;24126;52.672;13.622;2024-02-23T05:12:10;13.00;66.90
38325;DHT22;24126;52.672;13.622;2024-02-23T05:14:37;13.00;66.60
38325;DHT22;24126;52.672;13.622;2024-02-23T05:17:04;13.00;66.30
38325;DHT22;24126;52.672;13.622;2024-02-23T05:19:31;13.00;66.50
38325;DHT22;24126;52.672;13.622;2024-02-23T05:21:58;12.90;66.00
38325;DHT22;24126;52.672;13.622;2024-02-23T05:24:25;12.90;66.20
38325;DHT22;24126;52.672;13.622;2024-02-23T05:26:52;12.80;65.90
38325;DHT22;24126;52.672;13.622;2024-02-23T05:29:19;12.80;65.90
38325;DHT22;24126;52.672;13.622;2024-02-23T05:31:49;12.80;66.00
38325;DHT22;24126;52.672;13.622;2024-02-23T05:34:16;12.80;66.00
38325;DHT22;24126;52.672;13.622;2024-02-23T05:36:44;12.80;65.60
38325;DHT22;24126;52.672;13.622;2024-02-23T05:39:12;12.70;65.00
38325;DHT22;24126;52.672;13.622;2024-02-23T05:41:44;12.70;64.90
38325;DHT22;24126;52.672;13.622;2024-02-23T05:44:11;12.70;64.70
38325;DHT22;24126;52.672;13.622;2024-02-23T05:46:39;12.70;64.80
38325;DHT22;24126;52.672;13.622;2024-02-23T05:49:06;12.60;64.80
38325;DHT22;24126;52.672;13.622;2024-02-23T05:51:33;12.60;64.80
38325;DHT22;24126;52.672;13.622;2024-02-23T05:54:01;12.60;65.00
38325;DHT22;24126;52.672;13.622;2024-02-23T05:56:28;12.50;65.00
38325;DHT22;24126;52.672;13.622;2024-02-23T05:58:55;12.60;65.20
38325;DHT22;24126;52.672;13.622;2024-02-23T06:01:22;12.50;65.30
38325;DHT22;24126;52.672;13.622;2024-02-23T06:03:50;12.50;65.40
38325;DHT22;24126;52.672;13.622;2024-02-23T06:06:17;12.40;65.80
38325;DHT22;24126;52.672;13.622;2024-02-23T06:08:44;12.40;65.90
38325;DHT22;24126;52.672;13.622;2024-02-23T06:11:12;12.40;66.10
38325;DHT22;24126;52.672;13.622;2024-02-23T06:13:39;12.30;65.90
38325;DHT22;24126;52.672;13.622;2024-02-23T06:16:09;12.30;66.20
38325;DHT22;24126;52.672;13.622;2024-02-23T06:18:37;12.20;66.20
38325;DHT22;24126;52.672;13.622;2024-02-23T06:21:11;12.20;66.20
38325;DHT22;24126;52.672;13.622;2024-02-23T06:23:38;12.20;66.40
38325;DHT22;24126;52.672;13.622;2024-02-23T06:26:06;12.20;66.60
38325;DHT22;24126;52.672;13.622;2024-02-23T06:28:33;12.20;66.70
38325;DHT22;24126;52.672;13.622;2024-02-23T06:31:00;12.10;66.90
38325;DHT22;24126;52.672;13.622;2024-02-23T06:33:27;12.10;66.90
38325;DHT22;24126;52.672;13.622;2024-02-23T06:35:55;12.10;66.90
38325;DHT22;24126;52.672;13.622;2024-02-23T06:38:22;12.10;67.10
38325;DHT22;24126;52.672;13.622;2024-02-23T06:40:49;12.20;67.00
38325;DHT22;24126;52.672;13.622;2024-02-23T06:43:16;12.10;66.80
38325;DHT22;24126;52.672;13.622;2024-02-23T06:45:43;12.10;66.90
38325;DHT22;24126;52.672;13.622;2024-02-23T06:48:10;12.10;66.90
38325;DHT22;24126;52.672;13.622;2024-02-23T06:50:37;12.10;67.00
38325;DHT22;24126;52.672;13.622;2024-02-23T06:53:04;12.10;67.00
38325;DHT22;24126;52.672;13.622;2024-02-23T06:55:33;12.10;67.20
38325;DHT22;24126;52.672;13.622;2024-02-23T06:58:01;12.20;67.20
38325;DHT22;24126;52.672;13.622;2024-02-23T07:00:30;12.20;67.40
38325;DHT22;24126;52.672;13.622;2024-02-23T07:02:57;12.20;67.10
38325;DHT22;24126;52.672;13.622;2024-02-23T07:05:24;12.20;67.20
38325;DHT22;24126;52.672;13.622;2024-02-23T07:07:52;12.20;67.00
38325;DHT22;24126;52.672;13.622;2024-02-23T07:10:19;12.30;67.20
38325;DHT22;24126;52.672;13.622;2024-02-23T07:12:46;12.30;66.70
38325;DHT22;24126;52.672;13.622;2024-02-23T07:15:13;12.40;66.90
38325;DHT22;24126;52.672;13.622;2024-02-23T07:17:40;12.40;66.90
38325;DHT22;24126;52.672;13.622;2024-02-23T07:20:07;12.40;66.80
38325;DHT22;24126;52.672;13.622;2024-02-23T07:22:34;12.50;67.10
38325;DHT22;24126;52.672;13.622;2024-02-23T07:25:02;12.50;67.20
38325;DHT22;24126;52.672;13.622;2024-02-23T07:27:30;12.60;67.30
38325;DHT22;24126;52.672;13.622;2024-02-23T07:29:57;12.70;67.10
38325;DHT22;24126;52.672;13.622;2024-02-23T07:32:24;12.80;67.10
38325;DHT22;24126;52.672;13.622;2024-02-23T07:34:51;12.80;67.00
38325;DHT22;24126;52.672;13.622;2024-02-23T07:37:18;12.90;66.80
38325;DHT22;24126;52.672;13.622;2024-02-23T07:39:45;13.00;66.80
38325;DHT22;24126;52.672;13.622;2024-02-23T07:42:12;13.00;66.30
38325;DHT22;24126;52.672;13.622;2024-02-23T07:44:44;13.00;66.20
38325;DHT22;24126;52.672;13.622;2024-02-23T07:47:11;13.00;65.90
38325;DHT22;24126;52.672;13.622;2024-02-23T07:49:38;13.00;66.10
38325;DHT22;24126;52.672;13.622;2024-02-23T07:52:06;12.90;65.70
38325;DHT22;24126;52.672;13.622;2024-02-23T07:54:33;12.90;65.60
38325;DHT22;24126;52.672;13.622;2024-02-23T07:57:00;12.80;65.40
38325;DHT22;24126;52.672;13.622;2024-02-23T07:59:29;12.80;65.40
38325;DHT22;24126;52.672;13.622;2024-02-23T08:01:56;12.80;65.80
38325;DHT22;24126;52.672;13.622;2024-02-23T08:04:23;12.90;65.80
38325;DHT22;24126;52.672;13.622;2024-02-23T08:06:50;12.80;65.30
38325;DHT22;24126;52.672;13.622;2024-02-23T08:09:17;12.90;65.00
38325;DHT22;24126;52.672;13.622;2024-02-23T08:11:44;12.90;64.70
38325;DHT22;24126;52.672;13.622;2024-02-23T08:14:12;12.90;65.00
38325;DHT22;24126;52.672;13.622;2024-02-23T08:16:39;13.30;65.90
38325;DHT22;24126;52.672;13.622;2024-02-23T08:19:06;14.40;64.50
38325;DHT22;24126;52.672;13.622;2024-02-23T08:21:34;15.80;60.80
38325;DHT22;24126;52.672;13.622;2024-02-23T08:24:01;16.90;58.40
38325;DHT22;24126;52.672;13.622;2024-02-23T08:26:27;17.60;56.80
38325;DHT22;24126;52.672;13.622;2024-02-23T08:28:54;18.10;55.90
38325;DHT22;24126;52.672;13.622;2024-02-23T08:31:21;18.40;54.80
38325;DHT22;24126;52.672;13.622;2024-02-23T08:33:48;18.50;54.40
38325;DHT22;24126;52.672;13.622;2024-02-23T08:36:15;18.50;54.50
38325;DHT22;24126;52.672;13.622;2024-02-23T08:38:42;18.50;54.30
38325;DHT22;24126;52.672;13.622;2024-02-23T08:41:09;18.40;54.00
38325;DHT22;24126;52.672;13.622;2024-02-23T08:43:36;18.20;53.60
38325;DHT22;24126;52.672;13.622;2024-02-23T08:46:03;18.00;53.90
38325;DHT22;24126;52.672;13.622;2024-02-23T08:48:30;17.70;54.00
38325;DHT22;24126;52.672;13.622;2024-02-23T08:50:57;17.40;54.40
38325;DHT22;24126;52.672;13.622;2024-02-23T08:53:24;17.10;54.90
38325;DHT22;24126;52.672;13.622;2024-02-23T08:55:51;16.90;55.40
38325;DHT22;24126;52.672;13.622;2024-02-23T08:58:18;16.70;55.70
38325;DHT22;24126;52.672;13.622;2024-02-23T09:00:45;16.50;56.40
38325;DHT22;24126;52.672;13.622;2024-02-23T09:03:12;16.40;56.60
38325;DHT22;24126;52.672;13.622;2024-02-23T09:05:40;16.40;57.40
38325;DHT22;24126;52.672;13.622;2024-02-23T09:08:07;16.40;57.00
38325;DHT22;24126;52.672;13.622;2024-02-23T09:10:34;16.40;57.20
38325;DHT22;24126;52.672;13.622;2024-02-23T09:13:01;16.50;57.00
38325;DHT22;24126;52.672;13.622;2024-02-23T09:15:29;16.60;56.90
38325;DHT22;24126;52.672;13.622;2024-02-23T09:17:56;16.70;56.60
38325;DHT22;24126;52.672;13.622;2024-02-23T09:20:23;16.90;56.50
38325;DHT22;24126;52.672;13.622;2024-02-23T09:22:50;17.00;56.10
38325;DHT22;24126;52.672;13.622;2024-02-23T09:25:18;17.20;56.30
38325;DHT22;24126;52.672;13.622;2024-02-23T09:27:45;17.30;56.30
38325;DHT22;24126;52.672;13.622;2024-02-23T09:30:12;17.30;55.80
38325;DHT22;24126;52.672;13.622;2024-02-23T09:32:39;17.40;55.80
38325;DHT22;24126;52.672;13.622;2024-02-23T09:35:06;17.50;56.00
38325;DHT22;24126;52.672;13.622;2024-02-23T09:37:33;17.60;55.50
38325;DHT22;24126;52.672;13.622;2024-02-23T09:40:00;17.60;54.70
38325;DHT22;24126;52.672;13.622;2024-02-23T09:42:28;17.70;54.70
38325;DHT22;24126;52.672;13.622;2024-02-23T09:44:58;17.80;55.60
38325;DHT22;24126;52.672;13.622;2024-02-23T09:47:26;18.00;55.10
38325;DHT22;24126;52.672;13.622;2024-02-23T09:49:54;18.10;54.80
38325;DHT22;24126;52.672;13.622;2024-02-23T09:52:21;18.10;54.20
38325;DHT22;24126;52.672;13.622;2024-02-23T09:54:48;18.10;53.10
38325;DHT22;24126;52.672;13.622;2024-02-23T09:57:16;18.10;53.60
38325;DHT22;24126;52.672;13.622;2024-02-23T09:59:43;18.00;53.30
38325;DHT22;24126;52.672;13.622;2024-02-23T10:02:12;17.90;53.30
38325;DHT22;24126;52.672;13.622;2024-02-23T10:04:41;17.90;53.40
38325;DHT22;24126;52.672;13.622;2024-02-23T10:07:09;17.90;52.80
38325;DHT22;24126;52.672;13.622;2024-02-23T10:09:36;17.90;52.80
38325;DHT22;24126;52.672;13.622;2024-02-23T10:12:03;18.00;53.00
38325;DHT22;24126;52.672;13.622;2024-02-23T10:14:30;18.00;52.50
38325;DHT22;24126;52.672;13.622;2024-02-23T10:16:58;18.00;52.50
38325;DHT22;24126;52.672;13.622;2024-02-23T10:19:25;18.00;52.10
38325;DHT22;24126;52.672;13.622;2024-02-23T10:21:54;18.00;51.50
38325;DHT22;24126;52.672;13.622;2024-02-23T10:24:22;18.00;51.90
38325;DHT22;24126;52.672;13.622;2024-02-23T10:26:50;18.10;51.60
38325;DHT22;24126;52.672;13.622;2024-02-23T10:29:17;18.20;51.30
38325;DHT22;24126;52.672;13.622;2024-02-23T10:31:44;18.20;50.90
38325;DHT22;24126;52.672;13.622;2024-02-23T10:34:13;18.10;50.60
38325;DHT22;24126;52.672;13.622;2024-02-23T10:36:42;17.90;50.30
38325;DHT22;24126;52.672;13.622;2024-02-23T10:39:10;17.80;50.90
38325;DHT22;24126;52.672;13.622;2024-02-23T10:41:39;17.80;51.40
38325;DHT22;24126;52.672;13.622;2024-02-23T10:44:09;17.80;51.30
38325;DHT22;24126;52.672;13.622;2024-02-23T10:46:37;17.90;51.20
38325;DHT22;24126;52.672;13.622;2024-02-23T10:49:06;17.90;51.30
38325;DHT22;24126;52.672;13.622;2024-02-23T10:51:34;18.00;51.40
38325;DHT22;24126;52.672;13.622;2024-02-23T10:54:01;18.00;50.50
38325;DHT22;24126;52.672;13.622;2024-02-23T10:56:28;17.90;51.10
38325;DHT22;24126;52.672;13.622;2024-02-23T10:58:56;17.90;51.50
38325;DHT22;24126;52.672;13.622;2024-02-23T11:01:23;17.90;51.70
38325;DHT22;24126;52.672;13.622;2024-02-23T11:03:51;17.90;51.80
38325;DHT22;24126;52.672;13.622;2024-02-23T11:06:19;17.80;51.60
38325;DHT22;24126;52.672;13.622;2024-02-23T11:08:47;17.80;51.70
38325;DHT22;24126;52.672;13.622;2024-02-23T11:11:15;17.80;51.40
38325;DHT22;24126;52.672;13.622;2024-02-23T11:13:44;17.70;51.80
38325;DHT22;24126;52.672;13.622;2024-02-23T11:16:20;17.70;51.70
38325;DHT22;24126;52.672;13.622;2024-02-23T11:18:47;17.60;51.80
38325;DHT22;24126;52.672;13.622;2024-02-23T11:21:14;17.60;52.00
38325;DHT22;24126;52.672;13.622;2024-02-23T11:23:42;17.50;51.90
38325;DHT22;24126;52.672;13.622;2024-02-23T11:26:09;17.40;52.20
38325;DHT22;24126;52.672;13.622;2024-02-23T11:28:43;17.40;52.40
38325;DHT22;24126;52.672;13.622;2024-02-23T11:31:11;17.40;52.50
38325;DHT22;24126;52.672;13.622;2024-02-23T11:33:38;17.40;51.90
38325;DHT22;24126;52.672;13.622;2024-02-23T11:36:06;17.40;51.70
38325;DHT22;24126;52.672;13.622;2024-02-23T11:38:33;17.40;51.70
38325;DHT22;24126;52.672;13.622;2024-02-23T11:41:01;17.40;51.60
38325;DHT22;24126;52.672;13.622;2024-02-23T11:43:29;17.50;51.30
38325;DHT22;24126;52.672;13.622;2024-02-23T11:45:56;17.60;51.50
38325;DHT22;24126;52.672;13.622;2024-02-23T11:48:23;17.60;51.70
38325;DHT22;24126;52.672;13.622;2024-02-23T11:50:50;17.60;51.60
38325;DHT22;24126;52.672;13.622;2024-02-23T11:53:17;17.60;51.80
38325;DHT22;24126;52.672;13.622;2024-02-23T11:55:47;17.60;51.70
38325;DHT22;24126;52.672;13.622;2024-02-23T11:58:15;17.60;52.00
38325;DHT22;24126;52.672;13.622;2024-02-23T12:00:42;17.60;52.00
38325;DHT22;24126;52.672;13.622;2024-02-23T12:03:09;17.60;51.70
38325;DHT22;24126;52.672;13.622;2024-02-23T12:05:36;17.50;51.70
38325;DHT22;24126;52.672;13.622;2024-02-23T12:08:03;17.50;51.50
38325;DHT22;24126;52.672;13.622;2024-02-23T12:10:31;17.40;51.80
38325;DHT22;24126;52.672;13.622;2024-02-23T12:12:58;17.40;52.00
38325;DHT22;24126;52.672;13.622;2024-02-23T12:15:25;17.30;52.10
38325;DHT22;24126;52.672;13.622;2024-02-23T12:17:54;17.30;52.20
38325;DHT22;24126;52.672;13.622;2024-02-23T12:20:24;17.30;52.00
38325;DHT22;24126;52.672;13.622;2024-02-23T12:22:54;17.20;52.20
38325;DHT22;24126;52.672;13.622;2024-02-23T12:25:21;17.20;52.20
38325;DHT22;24126;52.672;13.622;2024-02-23T12:27:53;17.10;52.60
38325;DHT22;24126;52.672;13.622;2024-02-23T12:30:20;17.10;52.40
38325;DHT22;24126;52.672;13.622;2024-02-23T12:32:47;17.10;52.90
38325;DHT22;24126;52.672;13.622;2024-02-23T12:35:14;17.10;52.80
38325;DHT22;24126;52.672;13.622;2024-02-23T12:37:42;17.10;52.30
38325;DHT22;24126;52.672;13.622;2024-02-23T12:40:11;17.10;52.80
38325;DHT22;24126;52.672;13.622;2024-02-23T12:42:38;17.00;51.90
38325;DHT22;24126;52.672;13.622;2024-02-23T12:45:05;16.90;52.40
38325;DHT22;24126;52.672;13.622;2024-02-23T12:47:32;16.80;52.20
38325;DHT22;24126;52.672;13.622;2024-02-23T12:49:59;16.80;52.10
38325;DHT22;24126;52.672;13.622;2024-02-23T12:52:26;16.70;52.30
38325;DHT22;24126;52.672;13.622;2024-02-23T12:54:55;16.60;52.50
38325;DHT22;24126;52.672;13.622;2024-02-23T12:57:22;16.60;52.40
38325;DHT22;24126;52.672;13.622;2024-02-23T12:59:49;16.50;52.40
38325;DHT22;24126;52.672;13.622;2024-02-23T13:02:16;16.50;52.30
38325;DHT22;24126;52.672;13.622;2024-02-23T13:04:44;16.50;52.70
38325;DHT22;24126;52.672;13.622;2024-02-23T13:07:15;16.50;52.90
38325;DHT22;24126;52.672;13.622;2024-02-23T13:09:42;16.50;52.50
38325;DHT22;24126;52.672;13.622;2024-02-23T13:12:09;16.40;53.20
38325;DHT22;24126;52.672;13.622;2024-02-23T13:14:36;16.40;52.40
38325;DHT22;24126;52.672;13.622;2024-02-23T13:17:03;16.30;51.80
38325;DHT22;24126;52.672;13.622;2024-02-23T13:19:30;16.10;52.30
38325;DHT22;24126;52.672;13.622;2024-02-23T13:21:57;16.00;53.00
38325;DHT22;24126;52.672;13.622;2024-02-23T13:24:26;16.00;53.00
38325;DHT22;24126;52.672;13.622;2024-02-23T13:26:53;15.90;53.40
38325;DHT22;24126;52.672;13.622;2024-02-23T13:29:20;15.90;53.00
38325;DHT22;24126;52.672;13.622;2024-02-23T13:31:47;15.90;53.20
38325;DHT22;24126;52.672;13.622;2024-02-23T13:34:15;15.80;52.80
38325;DHT22;24126;52.672;13.622;2024-02-23T13:36:43;15.80;53.60
38325;DHT22;24126;52.672;13.622;2024-02-23T13:39:11;15.70;53.50
38325;DHT22;24126;52.672;13.622;2024-02-23T13:41:38;15.70;53.20
38325;DHT22;24126;52.672;13.622;2024-02-23T13:44:05;15.70;53.60
38325;DHT22;24126;52.672;13.622;2024-02-23T13:46:35;15.70;53.60
38325;DHT22;24126;52.672;13.622;2024-02-23T13:49:03;15.70;53.30
38325;DHT22;24126;52.672;13.622;2024-02-23T13:51:31;15.60;53.50
38325;DHT22;24126;52.672;13.622;2024-02-23T13:53:59;15.50;53.50
38325;DHT22;24126;52.672;13.622;2024-02-23T13:56:26;15.50;53.30
38325;DHT22;24126;52.672;13.622;2024-02-23T13:58:53;15.40;53.30
38325;DHT22;24126;52.672;13.622;2024-02-23T14:01:20;15.30;53.60
38325;DHT22;24126;52.672;13.622;2024-02-23T14:03:47;15.30;54.30
38325;DHT22;24126;52.672;13.622;2024-02-23T14:06:14;15.30;53.90
38325;DHT22;24126;52.672;13.622;2024-02-23T14:08:41;15.20;53.30
38325;DHT22;24126;52.672;13.622;2024-02-23T14:11:10;15.20;53.60
38325;DHT22;24126;52.672;13.622;2024-02-23T14:13:37;15.10;53.70
38325;DHT22;24126;52.672;13.622;2024-02-23T14:16:04;15.10;54.10
38325;DHT22;24126;52.672;13.622;2024-02-23T14:18:32;15.10;54.20
38325;DHT22;24126;52.672;13.622;2024-02-23T14:21:03;15.00;54.50
38325;DHT22;24126;52.672;13.622;2024-02-23T14:23:30;15.00;54.80
38325;DHT22;24126;52.672;13.622;2024-02-23T14:25:57;15.00;54.80
38325;DHT22;24126;52.672;13.622;2024-02-23T14:28:24;15.00;54.30
38325;DHT22;24126;52.672;13.622;2024-02-23T14:30:51;15.00;54.50
38325;DHT22;24126;52.672;13.622;2024-02-23T14:33:19;15.00;54.70
38325;DHT22;24126;52.672;13.622;2024-02-23T14:35:47;14.90;54.60
38325;DHT22;24126;52.672;13.622;2024-02-23T14:38:15;14.90;54.60
38325;DHT22;24126;52.672;13.622;2024-02-23T14:40:42;14.90;55.00
38325;DHT22;24126;52.672;13.622;2024-02-23T14:43:09;14.80;55.50
38325;DHT22;24126;52.672;13.622;2024-02-23T14:45:37;14.70;55.30
38325;DHT22;24126;52.672;13.622;2024-02-23T14:48:04;14.70;55.10
38325;DHT22;24126;52.672;13.622;2024-02-23T14:50:31;14.60;55.10
38325;DHT22;24126;52.672;13.622;2024-02-23T14:52:58;14.60;55.40
38325;DHT22;24126;52.672;13.622;2024-02-23T14:55:26;14.50;55.20
38325;DHT22;24126;52.672;13.622;2024-02-23T14:57:53;14.50;55.40
38325;DHT22;24126;52.672;13.622;2024-02-23T15:00:22;14.50;55.50
38325;DHT22;24126;52.672;13.622;2024-02-23T15:02:49;14.40;55.50
38325;DHT22;24126;52.672;13.622;2024-02-23T15:05:16;14.40;55.40
38325;DHT22;24126;52.672;13.622;2024-02-23T15:07:43;14.30;55.10
38325;DHT22;24126;52.672;13.622;2024-02-23T15:10:10;14.30;55.30
38325;DHT22;24126;52.672;13.622;2024-02-23T15:12:38;14.30;55.40
38325;DHT22;24126;52.672;13.622;2024-02-23T15:15:05;14.30;55.30